Terminal Aerodrome Forecast
Issued by NWS Sioux Falls, SD

Home | Current Version | Previous Version | Graphics & Text | Print | Product List | Glossary On
Versions: 1 2 3 4 5 6 7 8 9 10 11 12 13 14 15 16 17 18
000
FTUS43 KFSD 211727
TAFFSD
TAF
KFSD 211727Z 2118/2218 16009KT P6SM BKN200
     FM212100 19010KT P6SM FEW200
     FM220100 21007KT P6SM BKN200
     FM220300 VRB05KT P6SM SCT060 BKN250
     FM221100 33006KT P6SM SCT015
     FM221400 33008KT P6SM FEW250=

USA.gov is the U.S. government's official web portal to all federal, state and local government web resources and services.